sensor_id;sensor_type;location;lat;lon;timestamp;P1;durP1;ratioP1;P2;durP2;ratioP2
64609;SDS011;51019;46.090;6.350;2023-07-29T00:02:04;12.52;;;3.90;;
64609;SDS011;51019;46.090;6.350;2023-07-29T00:04:32;13.73;;;4.03;;
64609;SDS011;51019;46.090;6.350;2023-07-29T00:07:00;15.48;;;4.38;;
64609;SDS011;51019;46.090;6.350;2023-07-29T00:09:30;11.32;;;3.75;;
64609;SDS011;51019;46.090;6.350;2023-07-29T00:11:58;14.00;;;3.90;;
64609;SDS011;51019;46.090;6.350;2023-07-29T00:14:29;11.75;;;3.75;;
64609;SDS011;51019;46.090;6.350;2023-07-29T00:16:57;11.75;;;3.70;;
64609;SDS011;51019;46.090;6.350;2023-07-29T00:19:25;12.23;;;4.25;;
64609;SDS011;51019;46.090;6.350;2023-07-29T00:21:53;15.23;;;4.10;;
64609;SDS011;51019;46.090;6.350;2023-07-29T00:24:24;12.55;;;4.03;;
64609;SDS011;51019;46.090;6.350;2023-07-29T00:26:57;18.88;;;4.15;;
64609;SDS011;51019;46.090;6.350;2023-07-29T00:29:24;12.18;;;4.15;;
64609;SDS011;51019;46.090;6.350;2023-07-29T00:31:55;11.77;;;3.80;;
64609;SDS011;51019;46.090;6.350;2023-07-29T00:34:22;11.60;;;3.67;;
64609;SDS011;51019;46.090;6.350;2023-07-29T00:36:50;13.20;;;4.07;;
64609;SDS011;51019;46.090;6.350;2023-07-29T00:39:19;13.35;;;4.20;;
64609;SDS011;51019;46.090;6.350;2023-07-29T00:41:47;11.80;;;4.10;;
64609;SDS011;51019;46.090;6.350;2023-07-29T00:44:18;14.90;;;3.90;;
64609;SDS011;51019;46.090;6.350;2023-07-29T00:46:49;12.30;;;3.90;;
64609;SDS011;51019;46.090;6.350;2023-07-29T00:49:22;12.27;;;3.85;;
64609;SDS011;51019;46.090;6.350;2023-07-29T00:51:50;11.75;;;3.60;;
64609;SDS011;51019;46.090;6.350;2023-07-29T00:54:19;12.40;;;4.50;;
64609;SDS011;51019;46.090;6.350;2023-07-29T00:56:47;12.40;;;4.25;;
64609;SDS011;51019;46.090;6.350;2023-07-29T00:59:22;11.35;;;3.88;;
64609;SDS011;51019;46.090;6.350;2023-07-29T01:01:50;14.88;;;3.97;;
64609;SDS011;51019;46.090;6.350;2023-07-29T01:04:19;13.07;;;4.30;;
64609;SDS011;51019;46.090;6.350;2023-07-29T01:06:49;12.02;;;4.05;;
64609;SDS011;51019;46.090;6.350;2023-07-29T01:09:24;12.82;;;3.80;;
64609;SDS011;51019;46.090;6.350;2023-07-29T01:12:00;11.65;;;3.70;;
64609;SDS011;51019;46.090;6.350;2023-07-29T01:14:49;12.50;;;4.13;;
64609;SDS011;51019;46.090;6.350;2023-07-29T01:17:23;11.80;;;3.78;;
64609;SDS011;51019;46.090;6.350;2023-07-29T01:19:59;12.48;;;4.30;;
64609;SDS011;51019;46.090;6.350;2023-07-29T01:22:31;12.07;;;3.80;;
64609;SDS011;51019;46.090;6.350;2023-07-29T01:25:02;11.75;;;3.58;;
64609;SDS011;51019;46.090;6.350;2023-07-29T01:27:31;12.57;;;4.30;;
64609;SDS011;51019;46.090;6.350;2023-07-29T01:29:59;14.70;;;4.68;;
64609;SDS011;51019;46.090;6.350;2023-07-29T01:32:37;12.02;;;3.90;;
64609;SDS011;51019;46.090;6.350;2023-07-29T01:35:11;14.02;;;4.72;;
64609;SDS011;51019;46.090;6.350;2023-07-29T01:37:47;12.52;;;4.35;;
64609;SDS011;51019;46.090;6.350;2023-07-29T01:40:23;12.90;;;4.10;;
64609;SDS011;51019;46.090;6.350;2023-07-29T01:42:54;11.63;;;4.15;;
64609;SDS011;51019;46.090;6.350;2023-07-29T01:45:23;11.95;;;3.75;;
64609;SDS011;51019;46.090;6.350;2023-07-29T01:47:52;12.35;;;4.25;;
64609;SDS011;51019;46.090;6.350;2023-07-29T01:50:20;12.30;;;4.05;;
64609;SDS011;51019;46.090;6.350;2023-07-29T01:52:48;13.60;;;4.25;;
64609;SDS011;51019;46.090;6.350;2023-07-29T01:55:43;12.35;;;4.55;;
64609;SDS011;51019;46.090;6.350;2023-07-29T01:58:11;12.18;;;3.58;;
64609;SDS011;51019;46.090;6.350;2023-07-29T02:00:40;14.48;;;4.40;;
64609;SDS011;51019;46.090;6.350;2023-07-29T02:03:08;12.77;;;4.15;;
64609;SDS011;51019;46.090;6.350;2023-07-29T02:05:35;11.30;;;3.70;;
64609;SDS011;51019;46.090;6.350;2023-07-29T02:08:03;13.77;;;4.20;;
64609;SDS011;51019;46.090;6.350;2023-07-29T02:10:30;12.38;;;4.28;;
64609;SDS011;51019;46.090;6.350;2023-07-29T02:12:59;12.57;;;4.43;;
64609;SDS011;51019;46.090;6.350;2023-07-29T02:15:26;11.23;;;3.78;;
64609;SDS011;51019;46.090;6.350;2023-07-29T02:17:54;11.43;;;3.90;;
64609;SDS011;51019;46.090;6.350;2023-07-29T02:20:22;13.38;;;4.63;;
64609;SDS011;51019;46.090;6.350;2023-07-29T02:22:49;13.35;;;3.80;;
64609;SDS011;51019;46.090;6.350;2023-07-29T02:25:16;11.48;;;4.38;;
64609;SDS011;51019;46.090;6.350;2023-07-29T02:27:43;14.00;;;4.45;;
64609;SDS011;51019;46.090;6.350;2023-07-29T02:30:14;12.15;;;4.38;;
64609;SDS011;51019;46.090;6.350;2023-07-29T02:32:41;13.98;;;4.70;;
64609;SDS011;51019;46.090;6.350;2023-07-29T02:35:08;12.45;;;4.30;;
64609;SDS011;51019;46.090;6.350;2023-07-29T02:37:36;12.32;;;4.30;;
64609;SDS011;51019;46.090;6.350;2023-07-29T02:40:04;14.15;;;4.22;;
64609;SDS011;51019;46.090;6.350;2023-07-29T02:42:32;11.88;;;4.13;;
64609;SDS011;51019;46.090;6.350;2023-07-29T02:44:59;12.98;;;4.35;;
64609;SDS011;51019;46.090;6.350;2023-07-29T02:47:28;11.77;;;4.13;;
64609;SDS011;51019;46.090;6.350;2023-07-29T02:49:56;12.80;;;4.28;;
64609;SDS011;51019;46.090;6.350;2023-07-29T02:52:23;12.80;;;4.65;;
64609;SDS011;51019;46.090;6.350;2023-07-29T02:54:50;12.15;;;4.10;;
64609;SDS011;51019;46.090;6.350;2023-07-29T02:57:18;11.95;;;4.30;;
64609;SDS011;51019;46.090;6.350;2023-07-29T02:59:46;13.40;;;4.15;;
64609;SDS011;51019;46.090;6.350;2023-07-29T03:02:14;13.10;;;4.80;;
64609;SDS011;51019;46.090;6.350;2023-07-29T03:04:43;12.20;;;4.28;;
64609;SDS011;51019;46.090;6.350;2023-07-29T03:07:10;12.88;;;4.72;;
64609;SDS011;51019;46.090;6.350;2023-07-29T03:09:39;11.93;;;4.03;;
64609;SDS011;51019;46.090;6.350;2023-07-29T03:12:07;13.07;;;4.00;;
64609;SDS011;51019;46.090;6.350;2023-07-29T03:14:35;12.82;;;4.20;;
64609;SDS011;51019;46.090;6.350;2023-07-29T03:17:03;12.18;;;3.88;;
64609;SDS011;51019;46.090;6.350;2023-07-29T03:19:31;11.73;;;4.10;;
64609;SDS011;51019;46.090;6.350;2023-07-29T03:22:00;13.70;;;4.32;;
64609;SDS011;51019;46.090;6.350;2023-07-29T03:24:27;13.32;;;4.15;;
64609;SDS011;51019;46.090;6.350;2023-07-29T03:26:54;15.73;;;4.60;;
64609;SDS011;51019;46.090;6.350;2023-07-29T03:29:21;14.85;;;4.55;;
64609;SDS011;51019;46.090;6.350;2023-07-29T03:31:49;13.85;;;4.57;;
64609;SDS011;51019;46.090;6.350;2023-07-29T03:34:16;12.00;;;4.35;;
64609;SDS011;51019;46.090;6.350;2023-07-29T03:36:43;14.63;;;4.90;;
64609;SDS011;51019;46.090;6.350;2023-07-29T03:39:14;13.32;;;4.25;;
64609;SDS011;51019;46.090;6.350;2023-07-29T03:41:42;12.65;;;4.15;;
64609;SDS011;51019;46.090;6.350;2023-07-29T03:44:10;13.00;;;4.18;;
64609;SDS011;51019;46.090;6.350;2023-07-29T03:46:37;12.60;;;4.28;;
64609;SDS011;51019;46.090;6.350;2023-07-29T03:49:04;12.88;;;4.43;;
64609;SDS011;51019;46.090;6.350;2023-07-29T03:51:32;12.75;;;4.38;;
64609;SDS011;51019;46.090;6.350;2023-07-29T03:53:59;13.48;;;4.68;;
64609;SDS011;51019;46.090;6.350;2023-07-29T03:56:29;14.10;;;4.53;;
64609;SDS011;51019;46.090;6.350;2023-07-29T03:59:01;13.20;;;4.57;;
64609;SDS011;51019;46.090;6.350;2023-07-29T04:01:29;13.20;;;4.43;;
64609;SDS011;51019;46.090;6.350;2023-07-29T04:03:57;12.45;;;4.13;;
64609;SDS011;51019;46.090;6.350;2023-07-29T04:06:24;13.02;;;4.22;;
64609;SDS011;51019;46.090;6.350;2023-07-29T04:08:52;13.45;;;4.30;;
64609;SDS011;51019;46.090;6.350;2023-07-29T04:11:20;13.00;;;4.20;;
64609;SDS011;51019;46.090;6.350;2023-07-29T04:13:49;13.73;;;5.03;;
64609;SDS011;51019;46.090;6.350;2023-07-29T04:16:16;14.55;;;4.55;;
64609;SDS011;51019;46.090;6.350;2023-07-29T04:18:44;13.55;;;4.55;;
64609;SDS011;51019;46.090;6.350;2023-07-29T04:21:11;13.02;;;4.38;;
64609;SDS011;51019;46.090;6.350;2023-07-29T04:23:39;11.88;;;4.32;;
64609;SDS011;51019;46.090;6.350;2023-07-29T04:26:07;12.50;;;4.53;;
64609;SDS011;51019;46.090;6.350;2023-07-29T04:28:34;12.85;;;4.00;;
64609;SDS011;51019;46.090;6.350;2023-07-29T04:31:03;14.82;;;4.72;;
64609;SDS011;51019;46.090;6.350;2023-07-29T04:33:30;13.02;;;4.40;;
64609;SDS011;51019;46.090;6.350;2023-07-29T04:35:57;14.20;;;4.50;;
64609;SDS011;51019;46.090;6.350;2023-07-29T04:38:29;13.90;;;4.90;;
64609;SDS011;51019;46.090;6.350;2023-07-29T04:40:58;12.55;;;4.65;;
64609;SDS011;51019;46.090;6.350;2023-07-29T04:43:27;15.63;;;4.72;;
64609;SDS011;51019;46.090;6.350;2023-07-29T04:45:55;13.90;;;4.75;;
64609;SDS011;51019;46.090;6.350;2023-07-29T04:48:24;14.30;;;4.20;;
64609;SDS011;51019;46.090;6.350;2023-07-29T04:50:51;14.88;;;4.85;;
64609;SDS011;51019;46.090;6.350;2023-07-29T04:53:18;13.98;;;4.43;;
64609;SDS011;51019;46.090;6.350;2023-07-29T04:55:46;12.50;;;4.78;;
64609;SDS011;51019;46.090;6.350;2023-07-29T04:58:13;13.18;;;4.78;;
64609;SDS011;51019;46.090;6.350;2023-07-29T05:00:41;12.85;;;4.53;;
64609;SDS011;51019;46.090;6.350;2023-07-29T05:03:08;12.95;;;4.40;;
64609;SDS011;51019;46.090;6.350;2023-07-29T05:05:37;12.55;;;4.63;;
64609;SDS011;51019;46.090;6.350;2023-07-29T05:08:04;14.43;;;4.63;;
64609;SDS011;51019;46.090;6.350;2023-07-29T05:10:31;13.88;;;4.40;;
64609;SDS011;51019;46.090;6.350;2023-07-29T05:12:59;14.00;;;4.75;;
64609;SDS011;51019;46.090;6.350;2023-07-29T05:15:26;14.40;;;4.90;;
64609;SDS011;51019;46.090;6.350;2023-07-29T05:17:53;12.23;;;4.43;;
64609;SDS011;51019;46.090;6.350;2023-07-29T05:20:21;13.98;;;5.18;;
64609;SDS011;51019;46.090;6.350;2023-07-29T05:22:49;14.88;;;4.75;;
64609;SDS011;51019;46.090;6.350;2023-07-29T05:25:17;14.45;;;4.60;;
64609;SDS011;51019;46.090;6.350;2023-07-29T05:27:44;13.43;;;4.45;;
64609;SDS011;51019;46.090;6.350;2023-07-29T05:30:12;13.05;;;4.35;;
64609;SDS011;51019;46.090;6.350;2023-07-29T05:32:39;13.35;;;4.00;;
64609;SDS011;51019;46.090;6.350;2023-07-29T05:35:07;13.55;;;4.90;;
64609;SDS011;51019;46.090;6.350;2023-07-29T05:37:37;15.50;;;4.80;;
64609;SDS011;51019;46.090;6.350;2023-07-29T05:40:08;13.55;;;4.40;;
64609;SDS011;51019;46.090;6.350;2023-07-29T05:42:37;11.80;;;4.25;;
64609;SDS011;51019;46.090;6.350;2023-07-29T05:45:09;12.38;;;4.50;;
64609;SDS011;51019;46.090;6.350;2023-07-29T05:48:03;12.68;;;4.60;;
64609;SDS011;51019;46.090;6.350;2023-07-29T05:50:32;16.02;;;5.00;;
64609;SDS011;51019;46.090;6.350;2023-07-29T05:52:59;11.85;;;4.10;;
64609;SDS011;51019;46.090;6.350;2023-07-29T05:55:28;11.95;;;4.05;;
64609;SDS011;51019;46.090;6.350;2023-07-29T05:58:09;22.35;;;5.40;;
64609;SDS011;51019;46.090;6.350;2023-07-29T06:00:39;14.35;;;5.32;;
64609;SDS011;51019;46.090;6.350;2023-07-29T06:03:06;12.85;;;4.75;;
64609;SDS011;51019;46.090;6.350;2023-07-29T06:05:34;13.10;;;4.60;;
64609;SDS011;51019;46.090;6.350;2023-07-29T06:08:02;13.15;;;5.05;;
64609;SDS011;51019;46.090;6.350;2023-07-29T06:10:31;13.93;;;4.70;;
64609;SDS011;51019;46.090;6.350;2023-07-29T06:13:12;14.85;;;5.35;;
64609;SDS011;51019;46.090;6.350;2023-07-29T06:15:45;13.50;;;4.70;;
64609;SDS011;51019;46.090;6.350;2023-07-29T06:18:14;13.90;;;4.78;;
64609;SDS011;51019;46.090;6.350;2023-07-29T06:23:26;11.40;;;4.45;;
64609;SDS011;51019;46.090;6.350;2023-07-29T06:26:01;14.30;;;4.70;;
64609;SDS011;51019;46.090;6.350;2023-07-29T06:28:29;14.43;;;5.22;;
64609;SDS011;51019;46.090;6.350;2023-07-29T06:31:01;15.40;;;4.70;;
64609;SDS011;51019;46.090;6.350;2023-07-29T06:33:33;12.18;;;4.28;;
64609;SDS011;51019;46.090;6.350;2023-07-29T06:36:01;15.32;;;4.75;;
64609;SDS011;51019;46.090;6.350;2023-07-29T06:38:36;12.48;;;4.75;;
64609;SDS011;51019;46.090;6.350;2023-07-29T06:41:18;13.95;;;4.65;;
64609;SDS011;51019;46.090;6.350;2023-07-29T06:43:48;12.63;;;4.93;;
64609;SDS011;51019;46.090;6.350;2023-07-29T06:46:22;12.48;;;4.70;;
64609;SDS011;51019;46.090;6.350;2023-07-29T06:48:54;12.63;;;4.50;;
64609;SDS011;51019;46.090;6.350;2023-07-29T06:51:27;14.30;;;5.25;;
64609;SDS011;51019;46.090;6.350;2023-07-29T06:54:01;13.10;;;4.72;;
64609;SDS011;51019;46.090;6.350;2023-07-29T06:56:35;13.27;;;4.50;;
64609;SDS011;51019;46.090;6.350;2023-07-29T06:59:14;12.80;;;5.15;;
64609;SDS011;51019;46.090;6.350;2023-07-29T07:01:49;12.27;;;4.45;;
64609;SDS011;51019;46.090;6.350;2023-07-29T07:04:22;12.73;;;4.25;;
64609;SDS011;51019;46.090;6.350;2023-07-29T07:06:50;14.80;;;4.53;;
64609;SDS011;51019;46.090;6.350;2023-07-29T07:09:19;14.73;;;4.90;;
64609;SDS011;51019;46.090;6.350;2023-07-29T07:11:58;13.48;;;5.20;;
64609;SDS011;51019;46.090;6.350;2023-07-29T07:14:26;12.98;;;4.78;;
64609;SDS011;51019;46.090;6.350;2023-07-29T07:17:01;13.75;;;4.43;;
64609;SDS011;51019;46.090;6.350;2023-07-29T07:19:32;12.35;;;4.70;;
64609;SDS011;51019;46.090;6.350;2023-07-29T07:21:59;12.32;;;4.35;;
64609;SDS011;51019;46.090;6.350;2023-07-29T07:24:28;13.02;;;4.53;;
64609;SDS011;51019;46.090;6.350;2023-07-29T07:27:17;12.18;;;4.47;;
64609;SDS011;51019;46.090;6.350;2023-07-29T07:29:45;12.77;;;4.60;;
64609;SDS011;51019;46.090;6.350;2023-07-29T07:32:12;13.15;;;4.28;;
64609;SDS011;51019;46.090;6.350;2023-07-29T07:34:39;13.20;;;4.93;;
64609;SDS011;51019;46.090;6.350;2023-07-29T07:37:07;13.82;;;4.85;;
64609;SDS011;51019;46.090;6.350;2023-07-29T07:39:34;14.07;;;4.40;;
64609;SDS011;51019;46.090;6.350;2023-07-29T07:42:01;13.02;;;4.70;;
64609;SDS011;51019;46.090;6.350;2023-07-29T07:44:31;13.70;;;4.40;;
64609;SDS011;51019;46.090;6.350;2023-07-29T07:46:58;12.38;;;4.60;;
64609;SDS011;51019;46.090;6.350;2023-07-29T07:49:25;12.20;;;4.28;;
64609;SDS011;51019;46.090;6.350;2023-07-29T07:51:53;12.10;;;4.50;;
64609;SDS011;51019;46.090;6.350;2023-07-29T07:54:20;14.57;;;4.38;;
64609;SDS011;51019;46.090;6.350;2023-07-29T07:56:47;13.30;;;5.15;;
64609;SDS011;51019;46.090;6.350;2023-07-29T07:59:15;11.50;;;4.32;;
64609;SDS011;51019;46.090;6.350;2023-07-29T08:01:45;13.63;;;4.60;;
64609;SDS011;51019;46.090;6.350;2023-07-29T08:04:13;12.48;;;4.93;;
64609;SDS011;51019;46.090;6.350;2023-07-29T08:06:40;12.43;;;4.38;;
64609;SDS011;51019;46.090;6.350;2023-07-29T08:09:07;13.45;;;4.78;;
64609;SDS011;51019;46.090;6.350;2023-07-29T08:11:35;13.98;;;4.80;;
64609;SDS011;51019;46.090;6.350;2023-07-29T08:14:02;11.63;;;4.57;;
64609;SDS011;51019;46.090;6.350;2023-07-29T08:16:29;13.52;;;5.40;;
64609;SDS011;51019;46.090;6.350;2023-07-29T08:18:58;13.43;;;5.25;;
64609;SDS011;51019;46.090;6.350;2023-07-29T08:21:27;12.57;;;4.22;;
64609;SDS011;51019;46.090;6.350;2023-07-29T08:23:54;12.07;;;4.40;;
64609;SDS011;51019;46.090;6.350;2023-07-29T08:26:21;14.98;;;4.90;;
64609;SDS011;51019;46.090;6.350;2023-07-29T08:28:49;14.15;;;4.65;;
64609;SDS011;51019;46.090;6.350;2023-07-29T08:31:16;14.00;;;4.63;;
64609;SDS011;51019;46.090;6.350;2023-07-29T08:33:43;13.30;;;5.03;;
64609;SDS011;51019;46.090;6.350;2023-07-29T08:36:13;14.95;;;4.78;;
64609;SDS011;51019;46.090;6.350;2023-07-29T08:38:40;12.75;;;4.93;;
64609;SDS011;51019;46.090;6.350;2023-07-29T08:41:10;13.80;;;4.85;;
64609;SDS011;51019;46.090;6.350;2023-07-29T08:43:43;13.55;;;4.93;;
64609;SDS011;51019;46.090;6.350;2023-07-29T08:46:17;14.98;;;5.05;;
64609;SDS011;51019;46.090;6.350;2023-07-29T08:48:46;13.43;;;4.97;;
64609;SDS011;51019;46.090;6.350;2023-07-29T08:51:15;12.77;;;4.88;;
64609;SDS011;51019;46.090;6.350;2023-07-29T08:53:44;13.30;;;4.45;;
64609;SDS011;51019;46.090;6.350;2023-07-29T08:56:11;11.75;;;4.30;;
64609;SDS011;51019;46.090;6.350;2023-07-29T08:58:39;12.52;;;4.30;;
64609;SDS011;51019;46.090;6.350;2023-07-29T09:01:07;14.20;;;4.82;;
64609;SDS011;51019;46.090;6.350;2023-07-29T09:03:34;14.90;;;4.82;;
64609;SDS011;51019;46.090;6.350;2023-07-29T09:06:01;13.07;;;4.03;;
64609;SDS011;51019;46.090;6.350;2023-07-29T09:08:33;12.45;;;4.40;;
64609;SDS011;51019;46.090;6.350;2023-07-29T09:11:01;17.23;;;4.78;;
64609;SDS011;51019;46.090;6.350;2023-07-29T09:13:29;13.20;;;4.93;;
64609;SDS011;51019;46.090;6.350;2023-07-29T09:15:57;12.52;;;4.63;;
64609;SDS011;51019;46.090;6.350;2023-07-29T09:18:26;13.27;;;4.75;;
64609;SDS011;51019;46.090;6.350;2023-07-29T09:20:54;15.20;;;5.03;;
64609;SDS011;51019;46.090;6.350;2023-07-29T09:23:26;12.68;;;4.60;;
64609;SDS011;51019;46.090;6.350;2023-07-29T09:26:01;13.82;;;5.13;;
64609;SDS011;51019;46.090;6.350;2023-07-29T09:28:32;12.98;;;4.28;;
64609;SDS011;51019;46.090;6.350;2023-07-29T09:31:01;12.17;;;4.40;;
64609;SDS011;51019;46.090;6.350;2023-07-29T09:33:29;13.48;;;4.60;;
64609;SDS011;51019;46.090;6.350;2023-07-29T09:35:57;11.73;;;4.40;;
64609;SDS011;51019;46.090;6.350;2023-07-29T09:38:28;12.23;;;4.35;;
64609;SDS011;51019;46.090;6.350;2023-07-29T09:40:56;12.65;;;4.63;;
64609;SDS011;51019;46.090;6.350;2023-07-29T09:43:30;13.23;;;5.38;;
64609;SDS011;51019;46.090;6.350;2023-07-29T09:45:59;13.02;;;4.55;;
64609;SDS011;51019;46.090;6.350;2023-07-29T09:48:32;11.65;;;4.47;;
64609;SDS011;51019;46.090;6.350;2023-07-29T09:51:00;14.90;;;5.13;;
64609;SDS011;51019;46.090;6.350;2023-07-29T09:53:38;13.13;;;5.03;;
64609;SDS011;51019;46.090;6.350;2023-07-29T09:56:06;14.27;;;4.82;;
64609;SDS011;51019;46.090;6.350;2023-07-29T09:58:36;12.52;;;4.43;;
64609;SDS011;51019;46.090;6.350;2023-07-29T10:01:03;13.75;;;4.47;;
64609;SDS011;51019;46.090;6.350;2023-07-29T10:03:31;12.75;;;4.70;;
64609;SDS011;51019;46.090;6.350;2023-07-29T10:05:59;12.48;;;4.55;;
64609;SDS011;51019;46.090;6.350;2023-07-29T10:08:28;11.77;;;4.28;;
64609;SDS011;51019;46.090;6.350;2023-07-29T10:10:58;13.07;;;5.05;;
64609;SDS011;51019;46.090;6.350;2023-07-29T10:13:26;14.73;;;4.40;;
64609;SDS011;51019;46.090;6.350;2023-07-29T10:15:55;11.95;;;4.30;;
64609;SDS011;51019;46.090;6.350;2023-07-29T10:18:24;12.27;;;4.28;;
64609;SDS011;51019;46.090;6.350;2023-07-29T10:20:52;11.98;;;4.28;;
64609;SDS011;51019;46.090;6.350;2023-07-29T10:23:24;13.65;;;4.70;;
64609;SDS011;51019;46.090;6.350;2023-07-29T10:25:55;14.55;;;4.85;;
64609;SDS011;51019;46.090;6.350;2023-07-29T10:28:29;13.82;;;4.32;;
64609;SDS011;51019;46.090;6.350;2023-07-29T10:31:02;13.02;;;5.00;;
64609;SDS011;51019;46.090;6.350;2023-07-29T10:33:33;13.57;;;5.32;;
64609;SDS011;51019;46.090;6.350;2023-07-29T10:36:01;13.63;;;4.68;;
64609;SDS011;51019;46.090;6.350;2023-07-29T10:38:29;12.70;;;4.45;;
64609;SDS011;51019;46.090;6.350;2023-07-29T10:40:57;12.65;;;4.25;;
64609;SDS011;51019;46.090;6.350;2023-07-29T10:43:26;12.57;;;4.35;;
64609;SDS011;51019;46.090;6.350;2023-07-29T10:45:55;11.93;;;4.43;;
64609;SDS011;51019;46.090;6.350;2023-07-29T10:48:44;12.35;;;4.50;;
64609;SDS011;51019;46.090;6.350;2023-07-29T10:51:23;13.82;;;4.55;;
64609;SDS011;51019;46.090;6.350;2023-07-29T10:56:24;12.18;;;4.63;;
64609;SDS011;51019;46.090;6.350;2023-07-29T10:58:54;12.68;;;4.43;;
64609;SDS011;51019;46.090;6.350;2023-07-29T11:01:27;11.95;;;4.25;;
64609;SDS011;51019;46.090;6.350;2023-07-29T11:10:00;11.77;;;3.90;;
64609;SDS011;51019;46.090;6.350;2023-07-29T11:12:33;13.70;;;4.18;;
64609;SDS011;51019;46.090;6.350;2023-07-29T11:15:14;13.30;;;5.10;;
64609;SDS011;51019;46.090;6.350;2023-07-29T11:17:45;13.65;;;4.65;;
64609;SDS011;51019;46.090;6.350;2023-07-29T11:20:16;13.55;;;5.40;;
64609;SDS011;51019;46.090;6.350;2023-07-29T11:22:48;11.95;;;4.50;;
64609;SDS011;51019;46.090;6.350;2023-07-29T11:25:16;12.43;;;4.50;;
64609;SDS011;51019;46.090;6.350;2023-07-29T11:27:46;13.98;;;4.95;;
64609;SDS011;51019;46.090;6.350;2023-07-29T11:30:14;13.00;;;4.85;;
64609;SDS011;51019;46.090;6.350;2023-07-29T11:32:45;14.18;;;5.32;;
64609;SDS011;51019;46.090;6.350;2023-07-29T11:35:17;12.65;;;5.07;;
64609;SDS011;51019;46.090;6.350;2023-07-29T11:37:47;14.23;;;5.20;;
64609;SDS011;51019;46.090;6.350;2023-07-29T11:40:17;12.68;;;4.78;;
64609;SDS011;51019;46.090;6.350;2023-07-29T11:42:46;13.55;;;5.10;;
64609;SDS011;51019;46.090;6.350;2023-07-29T11:45:16;14.50;;;5.15;;
64609;SDS011;51019;46.090;6.350;2023-07-29T11:47:45;14.65;;;5.13;;
64609;SDS011;51019;46.090;6.350;2023-07-29T11:50:13;13.55;;;5.13;;
64609;SDS011;51019;46.090;6.350;2023-07-29T11:52:44;14.10;;;4.93;;
64609;SDS011;51019;46.090;6.350;2023-07-29T11:55:13;13.25;;;5.07;;
64609;SDS011;51019;46.090;6.350;2023-07-29T11:57:41;14.18;;;5.38;;
64609;SDS011;51019;46.090;6.350;2023-07-29T12:00:14;12.43;;;4.72;;
64609;SDS011;51019;46.090;6.350;2023-07-29T12:02:43;14.18;;;5.60;;
64609;SDS011;51019;46.090;6.350;2023-07-29T12:05:14;14.30;;;5.68;;
64609;SDS011;51019;46.090;6.350;2023-07-29T12:07:46;18.00;;;6.35;;
64609;SDS011;51019;46.090;6.350;2023-07-29T12:10:14;14.95;;;5.93;;
64609;SDS011;51019;46.090;6.350;2023-07-29T12:12:45;15.02;;;6.13;;
64609;SDS011;51019;46.090;6.350;2023-07-29T12:15:22;14.02;;;5.47;;
64609;SDS011;51019;46.090;6.350;2023-07-29T12:17:52;15.05;;;5.70;;
64609;SDS011;51019;46.090;6.350;2023-07-29T12:20:34;14.00;;;5.53;;
64609;SDS011;51019;46.090;6.350;2023-07-29T12:23:04;17.50;;;6.65;;
64609;SDS011;51019;46.090;6.350;2023-07-29T12:25:33;14.23;;;4.95;;
64609;SDS011;51019;46.090;6.350;2023-07-29T12:28:02;13.25;;;5.22;;
64609;SDS011;51019;46.090;6.350;2023-07-29T12:30:32;13.00;;;5.20;;
64609;SDS011;51019;46.090;6.350;2023-07-29T12:33:00;13.38;;;4.65;;
64609;SDS011;51019;46.090;6.350;2023-07-29T12:35:35;12.25;;;5.07;;
64609;SDS011;51019;46.090;6.350;2023-07-29T12:38:06;16.35;;;5.32;;
64609;SDS011;51019;46.090;6.350;2023-07-29T12:40:37;16.10;;;5.10;;
64609;SDS011;51019;46.090;6.350;2023-07-29T12:43:09;14.38;;;5.43;;
64609;SDS011;51019;46.090;6.350;2023-07-29T12:45:38;14.30;;;4.53;;
64609;SDS011;51019;46.090;6.350;2023-07-29T12:48:06;14.85;;;5.38;;
64609;SDS011;51019;46.090;6.350;2023-07-29T12:50:34;14.38;;;4.85;;
64609;SDS011;51019;46.090;6.350;2023-07-29T12:53:01;13.77;;;4.93;;
64609;SDS011;51019;46.090;6.350;2023-07-29T12:55:30;15.38;;;5.45;;
64609;SDS011;51019;46.090;6.350;2023-07-29T12:57:57;13.25;;;5.18;;
64609;SDS011;51019;46.090;6.350;2023-07-29T13:00:26;14.90;;;5.13;;
64609;SDS011;51019;46.090;6.350;2023-07-29T13:02:53;13.13;;;4.97;;
64609;SDS011;51019;46.090;6.350;2023-07-29T13:05:20;13.57;;;5.45;;
64609;SDS011;51019;46.090;6.350;2023-07-29T13:07:49;15.45;;;6.38;;
64609;SDS011;51019;46.090;6.350;2023-07-29T13:10:16;15.18;;;6.18;;
64609;SDS011;51019;46.090;6.350;2023-07-29T13:12:45;13.80;;;5.75;;
64609;SDS011;51019;46.090;6.350;2023-07-29T13:15:14;14.52;;;5.95;;
64609;SDS011;51019;46.090;6.350;2023-07-29T13:17:42;17.20;;;6.22;;
64609;SDS011;51019;46.090;6.350;2023-07-29T13:20:10;15.82;;;6.85;;
64609;SDS011;51019;46.090;6.350;2023-07-29T13:22:37;16.05;;;6.60;;
64609;SDS011;51019;46.090;6.350;2023-07-29T13:25:05;14.18;;;6.55;;
64609;SDS011;51019;46.090;6.350;2023-07-29T13:27:33;17.25;;;6.75;;
64609;SDS011;51019;46.090;6.350;2023-07-29T13:30:03;15.88;;;6.43;;
64609;SDS011;51019;46.090;6.350;2023-07-29T13:32:32;18.33;;;6.35;;
64609;SDS011;51019;46.090;6.350;2023-07-29T13:34:59;14.68;;;5.68;;
64609;SDS011;51019;46.090;6.350;2023-07-29T13:37:26;15.30;;;6.35;;
64609;SDS011;51019;46.090;6.350;2023-07-29T13:39:56;13.63;;;6.03;;
64609;SDS011;51019;46.090;6.350;2023-07-29T13:42:25;15.32;;;6.63;;
64609;SDS011;51019;46.090;6.350;2023-07-29T13:44:52;13.65;;;6.07;;
64609;SDS011;51019;46.090;6.350;2023-07-29T13:47:25;16.17;;;5.93;;
64609;SDS011;51019;46.090;6.350;2023-07-29T13:49:54;14.18;;;5.65;;
64609;SDS011;51019;46.090;6.350;2023-07-29T13:52:25;13.23;;;5.50;;
64609;SDS011;51019;46.090;6.350;2023-07-29T13:54:53;14.77;;;5.57;;
64609;SDS011;51019;46.090;6.350;2023-07-29T13:57:20;13.63;;;5.38;;
64609;SDS011;51019;46.090;6.350;2023-07-29T13:59:48;13.75;;;5.82;;
64609;SDS011;51019;46.090;6.350;2023-07-29T14:02:16;13.55;;;5.28;;
64609;SDS011;51019;46.090;6.350;2023-07-29T14:04:46;13.98;;;5.85;;
64609;SDS011;51019;46.090;6.350;2023-07-29T14:07:16;14.70;;;6.53;;
64609;SDS011;51019;46.090;6.350;2023-07-29T14:09:44;14.85;;;5.90;;
64609;SDS011;51019;46.090;6.350;2023-07-29T14:12:12;15.02;;;5.85;;
64609;SDS011;51019;46.090;6.350;2023-07-29T14:14:40;15.27;;;6.57;;
64609;SDS011;51019;46.090;6.350;2023-07-29T14:17:09;14.50;;;5.53;;
64609;SDS011;51019;46.090;6.350;2023-07-29T14:19:39;15.60;;;6.45;;
64609;SDS011;51019;46.090;6.350;2023-07-29T14:22:09;16.45;;;6.57;;
64609;SDS011;51019;46.090;6.350;2023-07-29T14:24:37;16.15;;;6.35;;
64609;SDS011;51019;46.090;6.350;2023-07-29T14:27:05;14.40;;;6.10;;
64609;SDS011;51019;46.090;6.350;2023-07-29T14:29:33;17.45;;;6.25;;
64609;SDS011;51019;46.090;6.350;2023-07-29T14:32:02;14.65;;;6.20;;
64609;SDS011;51019;46.090;6.350;2023-07-29T14:34:32;13.60;;;5.07;;
64609;SDS011;51019;46.090;6.350;2023-07-29T14:37:00;14.40;;;5.38;;
64609;SDS011;51019;46.090;6.350;2023-07-29T14:39:30;13.27;;;5.60;;
64609;SDS011;51019;46.090;6.350;2023-07-29T14:42:02;12.20;;;4.75;;
64609;SDS011;51019;46.090;6.350;2023-07-29T14:44:30;15.90;;;5.30;;
64609;SDS011;51019;46.090;6.350;2023-07-29T14:46:57;14.27;;;4.85;;
64609;SDS011;51019;46.090;6.350;2023-07-29T14:49:26;15.13;;;5.43;;
64609;SDS011;51019;46.090;6.350;2023-07-29T14:51:58;13.27;;;4.60;;
64609;SDS011;51019;46.090;6.350;2023-07-29T14:54:29;12.95;;;5.40;;
64609;SDS011;51019;46.090;6.350;2023-07-29T14:56:56;13.63;;;5.38;;
64609;SDS011;51019;46.090;6.350;2023-07-29T14:59:27;12.38;;;4.78;;